createdAt,value
2019-04-01T00:00:07.920Z,0.00
2019-04-01T00:01:07.907Z,0.00
2019-04-01T00:02:07.896Z,0.00
2019-04-01T00:03:07.876Z,0.00
2019-04-01T00:04:07.829Z,0.00
2019-04-01T00:05:07.865Z,0.00
2019-04-01T00:06:07.878Z,0.00
2019-04-01T00:07:07.830Z,0.00
2019-04-01T00:08:07.840Z,0.00
2019-04-01T00:09:07.809Z,0.00
2019-04-01T00:10:07.847Z,0.00
2019-04-01T00:11:07.762Z,0.00
2019-04-01T00:12:07.828Z,0.00
2019-04-01T00:13:07.818Z,0.00
2019-04-01T00:14:07.765Z,0.00
2019-04-01T00:15:07.713Z,0.00
2019-04-01T00:16:07.715Z,0.00
2019-04-01T00:17:08.535Z,0.00
2019-04-01T00:18:07.721Z,0.00
2019-04-01T00:19:07.926Z,0.00
2019-04-01T00:20:07.726Z,0.00
2019-04-01T00:21:07.721Z,0.00
2019-04-01T00:22:07.644Z,0.00
2019-04-01T00:23:07.772Z,0.00
2019-04-01T00:24:07.641Z,0.00
2019-04-01T00:25:07.630Z,0.00
2019-04-01T00:26:07.630Z,0.00
2019-04-01T00:27:07.587Z,0.00
2019-04-01T00:28:07.599Z,0.00
2019-04-01T00:29:07.621Z,0.00
2019-04-01T00:30:07.631Z,0.00
2019-04-01T00:31:07.576Z,0.00
2019-04-01T00:32:07.590Z,0.00
2019-04-01T00:33:07.539Z,0.00
2019-04-01T00:34:07.520Z,0.00
2019-04-01T00:35:07.553Z,0.00
2019-04-01T00:36:07.512Z,0.00
2019-04-01T00:37:07.492Z,0.00
2019-04-01T00:38:07.543Z,0.00
2019-04-01T00:39:07.470Z,0.00
2019-04-01T00:40:07.456Z,0.00
2019-04-01T00:41:07.501Z,0.00
2019-04-01T00:42:07.454Z,0.00
2019-04-01T00:43:07.484Z,0.00
2019-04-01T00:44:07.418Z,0.00
2019-04-01T00:45:07.549Z,0.00
2019-04-01T00:46:07.565Z,0.00
2019-04-01T00:47:07.427Z,0.00
2019-04-01T00:48:07.374Z,0.00
2019-04-01T00:49:07.356Z,0.00
2019-04-01T00:50:07.364Z,0.00
2019-04-01T00:51:07.410Z,0.00
2019-04-01T00:52:07.374Z,0.00
2019-04-01T00:53:07.333Z,0.00
2019-04-01T00:54:07.333Z,0.00
2019-04-01T00:55:07.356Z,0.00
2019-04-01T00:56:07.309Z,0.00
2019-04-01T00:57:07.330Z,0.00
2019-04-01T00:58:07.298Z,0.00
2019-04-01T00:59:07.271Z,0.00
2019-04-01T01:00:07.265Z,0.00
2019-04-01T01:01:07.338Z,0.00
2019-04-01T01:02:07.341Z,0.00
2019-04-01T01:03:07.270Z,0.00
2019-04-01T01:04:07.249Z,0.00
2019-04-01T01:05:07.227Z,0.00
2019-04-01T01:06:07.265Z,0.00
2019-04-01T01:07:07.350Z,0.00
2019-04-01T01:08:07.174Z,0.00
2019-04-01T01:09:07.213Z,0.00
2019-04-01T01:10:07.156Z,0.00
2019-04-01T01:11:07.185Z,0.00
2019-04-01T01:12:07.158Z,0.00
2019-04-01T01:13:07.152Z,0.00
2019-04-01T01:14:07.136Z,0.00
2019-04-01T01:15:07.123Z,0.00
2019-04-01T01:16:07.116Z,0.00
2019-04-01T01:17:07.073Z,0.00
2019-04-01T01:18:07.218Z,0.00
2019-04-01T01:19:07.090Z,0.00
2019-04-01T01:20:08.558Z,0.00
2019-04-01T01:21:07.046Z,0.00
2019-04-01T01:22:07.049Z,0.00
2019-04-01T01:23:07.023Z,0.00
2019-04-01T01:24:07.169Z,0.00
2019-04-01T01:25:07.044Z,0.00
2019-04-01T01:26:07.111Z,0.00
2019-04-01T01:27:06.988Z,0.00
2019-04-01T01:28:06.974Z,0.00
2019-04-01T01:29:07.124Z,0.00
2019-04-01T01:30:06.985Z,0.00
2019-04-01T01:31:07.097Z,0.00
2019-04-01T01:32:07.106Z,0.00
2019-04-01T01:33:06.966Z,0.00
2019-04-01T01:34:07.016Z,0.00
2019-04-01T01:35:06.917Z,0.00
2019-04-01T01:36:06.926Z,0.00
2019-04-01T01:37:06.913Z,0.00
2019-04-01T01:38:06.914Z,0.00
2019-04-01T01:39:06.942Z,0.00
2019-04-01T01:40:06.881Z,0.00
2019-04-01T01:41:07.546Z,0.00
2019-04-01T01:42:06.826Z,0.00
2019-04-01T01:43:06.824Z,0.00
2019-04-01T01:44:06.861Z,0.00
2019-04-01T01:45:06.780Z,0.00
2019-04-01T01:46:06.875Z,0.00
2019-04-01T01:47:06.828Z,0.00
2019-04-01T01:48:06.895Z,0.00
2019-04-01T01:49:06.778Z,0.00
2019-04-01T01:50:06.825Z,0.00
2019-04-01T01:51:06.761Z,0.00
2019-04-01T01:52:06.746Z,0.00
2019-04-01T01:53:06.817Z,0.00
2019-04-01T01:54:07.550Z,0.00
2019-04-01T01:55:06.803Z,0.00
2019-04-01T01:56:06.821Z,0.00
2019-04-01T01:57:07.865Z,0.00
2019-04-01T01:58:06.861Z,0.00
2019-04-01T01:59:06.741Z,0.00
2019-04-01T02:00:06.866Z,0.00
2019-04-01T02:01:06.713Z,0.00
2019-04-01T02:02:06.825Z,0.00
2019-04-01T02:03:06.819Z,0.00
2019-04-01T02:04:06.718Z,0.00
2019-04-01T02:05:06.672Z,0.00
2019-04-01T02:06:06.698Z,0.00
2019-04-01T02:07:06.747Z,0.00
2019-04-01T02:08:06.568Z,0.00
2019-04-01T02:09:07.059Z,0.00
2019-04-01T02:10:06.606Z,0.00
2019-04-01T02:11:06.757Z,0.00
2019-04-01T02:12:06.583Z,0.00
2019-04-01T02:13:06.525Z,0.00
2019-04-01T02:14:06.496Z,0.00
2019-04-01T02:15:06.552Z,0.00
2019-04-01T02:16:06.484Z,0.00
2019-04-01T02:17:06.478Z,0.00
2019-04-01T02:18:06.444Z,0.00
2019-04-01T02:19:06.436Z,0.00
2019-04-01T02:20:08.928Z,0.00
2019-04-01T02:21:06.427Z,0.00
2019-04-01T02:22:06.433Z,0.00
2019-04-01T02:23:06.408Z,0.00
2019-04-01T02:24:06.421Z,0.00
2019-04-01T02:25:06.407Z,0.00
2019-04-01T02:26:06.364Z,0.00
2019-04-01T02:27:06.402Z,0.00
2019-04-01T02:28:06.366Z,0.00
2019-04-01T02:29:06.345Z,0.00
2019-04-01T02:30:06.395Z,0.00
2019-04-01T02:31:06.356Z,0.00
2019-04-01T02:32:06.301Z,0.00
2019-04-01T02:33:06.327Z,0.00
2019-04-01T02:34:06.274Z,0.00
2019-04-01T02:35:06.295Z,0.00
2019-04-01T02:36:06.276Z,0.00
2019-04-01T02:37:06.258Z,0.00
2019-04-01T02:38:06.310Z,0.00
2019-04-01T02:39:06.300Z,0.00
2019-04-01T02:40:06.275Z,0.00
2019-04-01T02:41:06.281Z,0.00
2019-04-01T02:42:06.245Z,0.00
2019-04-01T02:43:06.218Z,0.00
2019-04-01T02:44:06.213Z,0.00
2019-04-01T02:45:06.255Z,0.00
2019-04-01T02:46:06.209Z,0.00
2019-04-01T02:47:06.195Z,0.00
2019-04-01T02:48:06.176Z,0.00
2019-04-01T02:49:06.185Z,0.00
2019-04-01T02:50:06.109Z,0.00
2019-04-01T02:51:06.135Z,0.00
2019-04-01T02:52:06.093Z,0.00
2019-04-01T02:53:06.093Z,0.00
2019-04-01T02:54:06.075Z,0.00
2019-04-01T02:55:06.822Z,0.00
2019-04-01T02:56:06.073Z,0.00
2019-04-01T02:57:06.175Z,0.00
2019-04-01T02:58:06.050Z,0.00
2019-04-01T02:59:06.047Z,0.00
2019-04-01T03:00:06.117Z,0.00
2019-04-01T03:01:06.042Z,0.00
2019-04-01T03:02:05.996Z,0.00
2019-04-01T03:03:05.998Z,0.00
2019-04-01T03:04:05.986Z,0.00
2019-04-01T03:05:06.042Z,0.00
2019-04-01T03:06:05.992Z,0.00
2019-04-01T03:07:05.954Z,0.00
2019-04-01T03:08:05.959Z,0.00
2019-04-01T03:09:05.926Z,0.00
2019-04-01T03:10:05.907Z,0.00
2019-04-01T03:11:09.979Z,0.00
2019-04-01T03:12:06.958Z,0.00
2019-04-01T03:13:05.897Z,0.00
2019-04-01T03:14:05.901Z,0.00
2019-04-01T03:15:05.906Z,0.00
2019-04-01T03:16:05.885Z,0.00
2019-04-01T03:17:05.896Z,0.00
2019-04-01T03:18:05.830Z,0.00
2019-04-01T03:19:05.877Z,0.00
2019-04-01T03:20:05.826Z,0.00
2019-04-01T03:21:05.832Z,0.00
2019-04-01T03:22:05.835Z,0.00
2019-04-01T03:23:05.907Z,0.00
2019-04-01T03:24:05.797Z,0.00
2019-04-01T03:25:05.795Z,0.00
2019-04-01T03:26:05.821Z,0.00
2019-04-01T03:27:05.771Z,0.00
2019-04-01T03:28:05.739Z,0.00
2019-04-01T03:29:05.787Z,0.00
2019-04-01T03:30:05.776Z,0.00
2019-04-01T03:31:05.834Z,0.00
2019-04-01T03:32:05.691Z,0.00
2019-04-01T03:33:05.692Z,0.00
2019-04-01T03:34:05.664Z,0.00
2019-04-01T03:35:05.681Z,0.00
2019-04-01T03:36:05.702Z,0.00
2019-04-01T03:37:05.684Z,0.00
2019-04-01T03:38:05.682Z,0.00
2019-04-01T03:39:05.646Z,0.00
2019-04-01T03:40:05.620Z,0.00
2019-04-01T03:41:05.592Z,0.00
2019-04-01T03:42:05.614Z,0.00
2019-04-01T03:43:05.658Z,0.00
2019-04-01T03:44:05.590Z,0.00
2019-04-01T03:45:05.630Z,0.00
2019-04-01T03:46:05.541Z,0.00
2019-04-01T03:47:05.548Z,0.00
2019-04-01T03:48:05.533Z,0.00
2019-04-01T03:49:05.558Z,0.00
2019-04-01T03:50:05.517Z,0.00
2019-04-01T03:51:05.510Z,0.00
2019-04-01T03:52:10.046Z,0.00
2019-04-01T03:53:05.540Z,0.00
2019-04-01T03:54:05.458Z,0.00
2019-04-01T03:55:05.469Z,0.00
2019-04-01T03:56:05.448Z,0.00
2019-04-01T03:57:05.448Z,0.00
2019-04-01T03:58:05.466Z,0.00
2019-04-01T03:59:05.397Z,0.00
2019-04-01T04:00:05.472Z,0.00
2019-04-01T04:01:05.402Z,0.00
2019-04-01T04:02:05.458Z,0.00
2019-04-01T04:03:05.405Z,0.00
2019-04-01T04:04:05.400Z,0.00
2019-04-01T04:05:05.400Z,0.00
2019-04-01T04:06:05.370Z,0.00
2019-04-01T04:07:05.383Z,0.00
2019-04-01T04:08:05.324Z,0.00
2019-04-01T04:09:05.362Z,0.00
2019-04-01T04:10:05.304Z,0.00
2019-04-01T04:11:05.302Z,0.00
2019-04-01T04:12:05.284Z,0.00
2019-04-01T04:13:05.294Z,0.00
2019-04-01T04:14:05.377Z,0.00
2019-04-01T04:15:05.289Z,0.00
2019-04-01T04:16:05.265Z,0.00
2019-04-01T04:17:05.404Z,0.00
2019-04-01T04:18:05.282Z,0.00
2019-04-01T04:19:05.210Z,0.00
2019-04-01T04:20:05.230Z,0.00
2019-04-01T04:21:05.193Z,0.00
2019-04-01T04:22:05.180Z,0.00
2019-04-01T04:23:05.179Z,0.00
2019-04-01T04:24:05.151Z,0.00
2019-04-01T04:25:05.166Z,0.00
2019-04-01T04:26:05.151Z,0.00
2019-04-01T04:27:05.162Z,0.00
2019-04-01T04:28:05.146Z,0.00
2019-04-01T04:29:05.149Z,0.00
2019-04-01T04:30:05.106Z,0.00
2019-04-01T04:31:05.099Z,0.00
2019-04-01T04:32:05.082Z,0.00
2019-04-01T04:33:05.150Z,0.00
2019-04-01T04:34:05.085Z,0.00
2019-04-01T04:35:05.098Z,0.00
2019-04-01T04:36:05.053Z,5.62
2019-04-01T04:37:05.037Z,5.62
2019-04-01T04:38:05.035Z,5.62
2019-04-01T04:39:05.056Z,5.62
2019-04-01T04:40:05.034Z,5.62
2019-04-01T04:41:05.007Z,5.62
2019-04-01T04:42:05.035Z,5.62
2019-04-01T04:43:05.060Z,11.25
2019-04-01T04:44:04.945Z,11.25
2019-04-01T04:45:04.967Z,11.25
2019-04-01T04:46:05.006Z,11.25
2019-04-01T04:47:04.920Z,11.25
2019-04-01T04:48:04.926Z,16.88
2019-04-01T04:49:04.899Z,16.88
2019-04-01T04:50:04.923Z,16.88
2019-04-01T04:51:04.894Z,16.88
2019-04-01T04:52:04.884Z,22.50
2019-04-01T04:53:04.853Z,22.50
2019-04-01T04:54:04.849Z,22.50
2019-04-01T04:55:04.844Z,22.50
2019-04-01T04:56:04.847Z,28.12
2019-04-01T04:57:04.822Z,28.12
2019-04-01T04:58:04.793Z,28.12
2019-04-01T04:59:04.835Z,28.12
2019-04-01T05:00:04.851Z,33.75
2019-04-01T05:01:04.879Z,33.75
2019-04-01T05:02:04.774Z,39.38
2019-04-01T05:03:04.819Z,39.38
2019-04-01T05:04:04.737Z,39.38
2019-04-01T05:05:04.777Z,45.00
2019-04-01T05:06:13.656Z,45.00
2019-04-01T05:07:04.721Z,45.00
2019-04-01T05:08:04.718Z,50.62
2019-04-01T05:09:04.678Z,50.62
2019-04-01T05:10:04.685Z,50.62
2019-04-01T05:11:04.654Z,56.25
2019-04-01T05:12:04.664Z,56.25
2019-04-01T05:13:04.626Z,56.25
2019-04-01T05:14:04.652Z,61.88
2019-04-01T05:15:04.631Z,61.88
2019-04-01T05:16:04.622Z,67.50
2019-04-01T05:17:04.609Z,67.50
2019-04-01T05:18:04.591Z,67.50
2019-04-01T05:19:04.603Z,73.12
2019-04-01T05:20:04.571Z,73.12
2019-04-01T05:21:04.566Z,73.12
2019-04-01T05:22:04.557Z,78.75
2019-04-01T05:23:04.573Z,78.75
2019-04-01T05:24:04.569Z,78.75
2019-04-01T05:25:04.523Z,84.38
2019-04-01T05:26:04.537Z,84.38
2019-04-01T05:27:04.498Z,84.38
2019-04-01T05:28:04.501Z,84.38
2019-04-01T05:29:04.497Z,90.00
2019-04-01T05:30:04.518Z,90.00
2019-04-01T05:31:04.454Z,95.62
2019-04-01T05:32:04.471Z,95.62
2019-04-01T05:33:04.443Z,95.62
2019-04-01T05:34:04.439Z,95.62
2019-04-01T05:35:04.420Z,95.62
2019-04-01T05:36:04.436Z,95.62
2019-04-01T05:37:04.400Z,101.25
2019-04-01T05:38:04.411Z,101.25
2019-04-01T05:39:04.385Z,106.88
2019-04-01T05:40:04.377Z,106.88
2019-04-01T05:41:04.351Z,106.88
2019-04-01T05:42:04.339Z,112.50
2019-04-01T05:43:04.341Z,112.50
2019-04-01T05:44:04.333Z,112.50
2019-04-01T05:45:04.323Z,118.12
2019-04-01T05:46:04.334Z,118.12
2019-04-01T05:47:04.316Z,123.75
2019-04-01T05:48:04.286Z,123.75
2019-04-01T05:49:04.296Z,123.75
2019-04-01T05:50:04.306Z,129.38
2019-04-01T05:51:04.256Z,129.38
2019-04-01T05:52:04.240Z,135.00
2019-04-01T05:53:04.235Z,135.00
2019-04-01T05:54:04.223Z,135.00
2019-04-01T05:55:04.221Z,140.62
2019-04-01T05:56:04.228Z,140.62
2019-04-01T05:57:04.220Z,146.25
2019-04-01T05:58:04.223Z,146.25
2019-04-01T05:59:04.169Z,146.25
2019-04-01T06:00:04.167Z,151.88
2019-04-01T06:01:04.172Z,151.88
2019-04-01T06:02:04.166Z,157.50
2019-04-01T06:03:04.156Z,157.50
2019-04-01T06:04:04.164Z,157.50
2019-04-01T06:05:04.116Z,163.12
2019-04-01T06:06:04.107Z,163.12
2019-04-01T06:07:04.154Z,168.75
2019-04-01T06:08:04.080Z,168.75
2019-04-01T06:09:04.072Z,168.75
2019-04-01T06:10:04.063Z,168.75
2019-04-01T06:11:04.040Z,168.75
2019-04-01T06:12:04.038Z,174.38
2019-04-01T06:13:04.030Z,174.38
2019-04-01T06:14:13.227Z,180.00
2019-04-01T06:15:13.233Z,180.00
2019-04-01T06:16:03.991Z,185.62
2019-04-01T06:17:03.987Z,185.62
2019-04-01T06:18:03.999Z,185.62
2019-04-01T06:19:05.940Z,191.25
2019-04-01T06:20:03.952Z,191.25
2019-04-01T06:21:03.947Z,196.88
2019-04-01T06:22:03.916Z,196.88
2019-04-01T06:23:03.915Z,208.12
2019-04-01T06:24:03.955Z,202.50
2019-04-01T06:25:03.909Z,208.12
2019-04-01T06:26:03.958Z,208.12
2019-04-01T06:27:03.889Z,213.75
2019-04-01T06:28:03.866Z,213.75
2019-04-01T06:29:03.852Z,219.38
2019-04-01T06:30:03.859Z,225.00
2019-04-01T06:31:03.823Z,225.00
2019-04-01T06:32:03.824Z,230.62
2019-04-01T06:33:03.823Z,236.25
2019-04-01T06:34:03.790Z,236.25
2019-04-01T06:35:03.783Z,236.25
2019-04-01T06:36:03.792Z,241.88
2019-04-01T06:37:03.758Z,241.88
2019-04-01T06:38:03.767Z,241.88
2019-04-01T06:39:04.667Z,241.88
2019-04-01T06:40:03.743Z,247.50
2019-04-01T06:41:03.731Z,247.50
2019-04-01T06:42:07.058Z,247.50
2019-04-01T06:43:03.713Z,253.12
2019-04-01T06:44:03.701Z,258.75
2019-04-01T06:45:03.706Z,275.62
2019-04-01T06:46:03.715Z,270.00
2019-04-01T06:47:03.661Z,270.00
2019-04-01T06:48:03.653Z,270.00
2019-04-01T06:49:03.660Z,275.62
2019-04-01T06:50:03.648Z,275.62
2019-04-01T06:51:03.623Z,281.25
2019-04-01T06:52:03.676Z,281.25
2019-04-01T06:53:03.621Z,286.88
2019-04-01T06:54:03.600Z,281.25
2019-04-01T06:55:03.619Z,281.25
2019-04-01T06:56:03.607Z,281.25
2019-04-01T06:57:03.603Z,275.62
2019-04-01T06:58:03.548Z,281.25
2019-04-01T06:59:03.560Z,281.25
2019-04-01T07:00:03.532Z,281.25
2019-04-01T07:01:03.538Z,281.25
2019-04-01T07:02:03.567Z,281.25
2019-04-01T07:03:03.499Z,281.25
2019-04-01T07:04:03.493Z,281.25
2019-04-01T07:05:03.498Z,281.25
2019-04-01T07:06:03.498Z,286.88
2019-04-01T07:07:17.793Z,286.88
2019-04-01T07:08:04.444Z,286.88
2019-04-01T07:09:03.449Z,286.88
2019-04-01T07:10:03.432Z,286.88
2019-04-01T07:11:03.411Z,292.50
2019-04-01T07:12:03.406Z,292.50
2019-04-01T07:13:03.405Z,292.50
2019-04-01T07:14:03.406Z,298.12
2019-04-01T07:15:03.405Z,298.12
2019-04-01T07:16:14.628Z,298.12
2019-04-01T07:17:04.350Z,298.12
2019-04-01T07:18:03.361Z,298.12
2019-04-01T07:19:03.339Z,298.12
2019-04-01T07:20:03.336Z,298.12
2019-04-01T07:21:03.334Z,303.75
2019-04-01T07:22:03.319Z,303.75
2019-04-01T07:23:03.294Z,309.38
2019-04-01T07:24:03.290Z,309.38
2019-04-01T07:25:03.272Z,315.00
2019-04-01T07:26:03.267Z,315.00
2019-04-01T07:27:03.319Z,315.00
2019-04-01T07:28:03.255Z,320.62
2019-04-01T07:29:03.231Z,320.62
2019-04-01T07:30:03.223Z,320.62
2019-04-01T07:31:03.224Z,320.62
2019-04-01T07:32:03.207Z,320.62
2019-04-01T07:33:03.221Z,320.62
2019-04-01T07:34:03.178Z,320.62
2019-04-01T07:35:03.172Z,320.62
2019-04-01T07:36:03.164Z,320.62
2019-04-01T07:37:03.160Z,320.62
2019-04-01T07:38:03.249Z,320.62
2019-04-01T07:39:03.150Z,320.62
2019-04-01T07:40:03.121Z,320.62
2019-04-01T07:41:03.111Z,326.25
2019-04-01T07:42:03.102Z,326.25
2019-04-01T07:43:03.094Z,326.25
2019-04-01T07:44:03.113Z,326.25
2019-04-01T07:45:03.054Z,326.25
2019-04-01T07:46:03.057Z,326.25
2019-04-01T07:47:03.036Z,331.88
2019-04-01T07:48:03.030Z,331.88
2019-04-01T07:49:03.117Z,331.88
2019-04-01T07:50:03.041Z,331.88
2019-04-01T07:51:03.000Z,331.88
2019-04-01T07:52:02.973Z,337.50
2019-04-01T07:53:02.971Z,337.50
2019-04-01T07:54:03.070Z,337.50
2019-04-01T07:55:02.999Z,337.50
2019-04-01T07:56:02.948Z,337.50
2019-04-01T07:57:02.938Z,337.50
2019-04-01T07:58:02.917Z,337.50
2019-04-01T07:59:02.954Z,343.12
2019-04-01T08:00:02.912Z,343.12
2019-04-01T08:01:02.885Z,343.12
2019-04-01T08:02:02.885Z,343.12
2019-04-01T08:03:02.872Z,343.12
2019-04-01T08:04:02.859Z,343.12
2019-04-01T08:05:02.865Z,343.12
2019-04-01T08:06:02.840Z,348.75
2019-04-01T08:07:02.836Z,348.75
2019-04-01T08:08:02.813Z,348.75
2019-04-01T08:09:02.843Z,348.75
2019-04-01T08:10:02.825Z,348.75
2019-04-01T08:11:02.784Z,348.75
2019-04-01T08:12:02.771Z,348.75
2019-04-01T08:13:02.753Z,348.75
2019-04-01T08:14:02.774Z,354.38
2019-04-01T08:15:02.795Z,354.38
2019-04-01T08:16:02.747Z,354.38
2019-04-01T08:17:02.762Z,354.38
2019-04-01T08:18:02.711Z,354.38
2019-04-01T08:19:02.704Z,354.38
2019-04-01T08:20:02.731Z,360.00
2019-04-01T08:21:02.692Z,360.00
2019-04-01T08:22:02.670Z,360.00
2019-04-01T08:23:02.679Z,360.00
2019-04-01T08:24:02.647Z,360.00
2019-04-01T08:25:02.643Z,360.00
2019-04-01T08:26:03.715Z,365.62
2019-04-01T08:27:02.634Z,365.62
2019-04-01T08:28:02.617Z,365.62
2019-04-01T08:29:02.603Z,365.62
2019-04-01T08:30:02.592Z,365.62
2019-04-01T08:31:02.660Z,371.25
2019-04-01T08:32:02.596Z,371.25
2019-04-01T08:33:02.635Z,371.25
2019-04-01T08:34:02.619Z,371.25
2019-04-01T08:35:02.614Z,371.25
2019-04-01T08:36:02.549Z,371.25
2019-04-01T08:37:02.745Z,371.25
2019-04-01T08:38:02.686Z,371.25
2019-04-01T08:39:02.584Z,371.25
2019-04-01T08:40:02.513Z,371.25
2019-04-01T08:41:02.486Z,376.88
2019-04-01T08:42:02.650Z,376.88
2019-04-01T08:43:02.518Z,382.50
2019-04-01T08:44:03.360Z,382.50
2019-04-01T08:45:02.447Z,388.12
2019-04-01T08:46:02.438Z,388.12
2019-04-01T08:47:02.559Z,388.12
2019-04-01T08:48:02.437Z,388.12
2019-04-01T08:49:02.395Z,388.12
2019-04-01T08:50:02.446Z,382.50
2019-04-01T08:51:02.357Z,382.50
2019-04-01T08:52:02.366Z,382.50
2019-04-01T08:53:02.345Z,382.50
2019-04-01T08:54:02.324Z,382.50
2019-04-01T08:55:02.332Z,382.50
2019-04-01T08:56:02.313Z,382.50
2019-04-01T08:57:02.291Z,382.50
2019-04-01T08:58:02.283Z,382.50
2019-04-01T08:59:02.292Z,388.12
2019-04-01T09:00:02.313Z,388.12
2019-04-01T09:01:02.267Z,382.50
2019-04-01T09:02:16.708Z,388.12
2019-04-01T09:03:03.232Z,393.75
2019-04-01T09:04:02.285Z,388.12
2019-04-01T09:05:02.219Z,388.12
2019-04-01T09:06:02.329Z,388.12
2019-04-01T09:07:02.213Z,388.12
2019-04-01T09:08:02.204Z,388.12
2019-04-01T09:09:02.206Z,388.12
2019-04-01T09:10:02.184Z,388.12
2019-04-01T09:11:02.171Z,388.12
2019-04-01T09:12:02.214Z,388.12
2019-04-01T09:13:02.127Z,388.12
2019-04-01T09:14:02.138Z,360.00
2019-04-01T09:15:02.152Z,354.38
2019-04-01T09:16:02.111Z,360.00
2019-04-01T09:17:02.095Z,337.50
2019-04-01T09:18:02.087Z,388.12
2019-04-01T09:19:02.064Z,393.75
2019-04-01T09:20:02.069Z,393.75
2019-04-01T09:21:02.056Z,393.75
2019-04-01T09:22:02.058Z,393.75
2019-04-01T09:23:02.045Z,393.75
2019-04-01T09:24:02.098Z,393.75
2019-04-01T09:25:02.017Z,393.75
2019-04-01T09:26:02.007Z,393.75
2019-04-01T09:27:01.997Z,393.75
2019-04-01T09:28:02.030Z,393.75
2019-04-01T09:29:01.966Z,393.75
2019-04-01T09:30:01.966Z,393.75
2019-04-01T09:31:01.950Z,393.75
2019-04-01T09:32:01.963Z,393.75
2019-04-01T09:33:01.942Z,388.12
2019-04-01T09:34:01.946Z,388.12
2019-04-01T09:35:01.929Z,388.12
2019-04-01T09:36:01.894Z,393.75
2019-04-01T09:37:01.890Z,393.75
2019-04-01T09:38:01.865Z,388.12
2019-04-01T09:39:01.903Z,388.12
2019-04-01T09:40:01.861Z,388.12
2019-04-01T09:41:01.860Z,388.12
2019-04-01T09:42:02.722Z,388.12
2019-04-01T09:43:01.841Z,388.12
2019-04-01T09:44:01.807Z,388.12
2019-04-01T09:45:01.875Z,388.12
2019-04-01T09:46:01.782Z,388.12
2019-04-01T09:47:01.909Z,388.12
2019-04-01T09:48:01.776Z,388.12
2019-04-01T09:49:01.789Z,388.12
2019-04-01T09:50:01.790Z,382.50
2019-04-01T09:51:01.765Z,382.50
2019-04-01T09:52:03.869Z,382.50
2019-04-01T09:53:01.713Z,382.50
2019-04-01T09:54:01.729Z,382.50
2019-04-01T09:55:01.726Z,382.50
2019-04-01T09:56:01.691Z,382.50
2019-04-01T09:57:16.101Z,376.88
2019-04-01T09:58:02.674Z,376.88
2019-04-01T09:59:01.654Z,376.88
2019-04-01T10:00:01.684Z,376.88
2019-04-01T10:01:01.680Z,376.88
2019-04-01T10:02:01.639Z,376.88
2019-04-01T10:03:01.627Z,376.88
2019-04-01T10:04:01.627Z,371.25
2019-04-01T10:05:01.592Z,371.25
2019-04-01T10:06:01.587Z,371.25
2019-04-01T10:07:01.625Z,371.25
2019-04-01T10:08:01.575Z,371.25
2019-04-01T10:09:01.576Z,371.25
2019-04-01T10:10:01.551Z,365.62
2019-04-01T10:11:01.532Z,365.62
2019-04-01T10:12:01.524Z,365.62
2019-04-01T10:13:01.527Z,360.00
2019-04-01T10:14:01.536Z,360.00
2019-04-01T10:15:01.483Z,360.00
2019-04-01T10:16:01.484Z,360.00
2019-04-01T10:17:01.466Z,360.00
2019-04-01T10:18:01.444Z,354.38
2019-04-01T10:19:01.462Z,354.38
2019-04-01T10:20:01.667Z,354.38
2019-04-01T10:21:01.424Z,354.38
2019-04-01T10:22:01.409Z,354.38
2019-04-01T10:23:01.399Z,348.75
2019-04-01T10:24:01.405Z,348.75
2019-04-01T10:25:01.402Z,348.75
2019-04-01T10:26:01.349Z,348.75
2019-04-01T10:27:01.348Z,348.75
2019-04-01T10:28:01.411Z,348.75
2019-04-01T10:29:01.333Z,348.75
2019-04-01T10:30:01.325Z,348.75
2019-04-01T10:31:01.316Z,348.75
2019-04-01T10:32:01.314Z,343.12
2019-04-01T10:33:02.382Z,343.12
2019-04-01T10:34:01.289Z,343.12
2019-04-01T10:35:01.272Z,343.12
2019-04-01T10:36:01.264Z,343.12
2019-04-01T10:37:01.286Z,337.50
2019-04-01T10:38:01.226Z,337.50
2019-04-01T10:39:01.304Z,337.50
2019-04-01T10:40:01.218Z,337.50
2019-04-01T10:41:01.224Z,337.50
2019-04-01T10:42:01.218Z,331.88
2019-04-01T10:43:01.198Z,331.88
2019-04-01T10:44:04.586Z,337.50
2019-04-01T10:45:01.173Z,331.88
2019-04-01T10:46:01.166Z,326.25
2019-04-01T10:47:01.242Z,326.25
2019-04-01T10:48:01.229Z,326.25
2019-04-01T10:49:01.149Z,326.25
2019-04-01T10:50:01.168Z,326.25
2019-04-01T10:51:01.178Z,320.62
2019-04-01T10:52:01.099Z,320.62
2019-04-01T10:53:01.104Z,320.62
2019-04-01T10:54:01.152Z,320.62
2019-04-01T10:55:01.103Z,320.62
2019-04-01T10:56:01.100Z,315.00
2019-04-01T10:57:01.064Z,315.00
2019-04-01T10:58:01.081Z,315.00
2019-04-01T10:59:01.061Z,315.00
2019-04-01T11:00:01.119Z,315.00
2019-04-01T11:01:01.064Z,309.38
2019-04-01T11:02:01.045Z,309.38
2019-04-01T11:03:01.071Z,309.38
2019-04-01T11:04:01.019Z,309.38
2019-04-01T11:05:01.034Z,309.38
2019-04-01T11:06:01.039Z,309.38
2019-04-01T11:07:00.941Z,303.75
2019-04-01T11:08:01.003Z,303.75
2019-04-01T11:09:00.983Z,303.75
2019-04-01T11:10:00.914Z,303.75
2019-04-01T11:11:00.924Z,298.12
2019-04-01T11:12:00.891Z,309.38
2019-04-01T11:13:00.892Z,298.12
2019-04-01T11:14:00.870Z,298.12
2019-04-01T11:15:00.854Z,298.12
2019-04-01T11:16:00.841Z,298.12
2019-04-01T11:17:04.039Z,298.12
2019-04-01T11:18:00.847Z,298.12
2019-04-01T11:19:00.866Z,298.12
2019-04-01T11:20:00.799Z,292.50
2019-04-01T11:21:00.794Z,298.12
2019-04-01T11:22:00.784Z,298.12
2019-04-01T11:23:02.545Z,298.12
2019-04-01T11:24:02.015Z,298.12
2019-04-01T11:25:00.777Z,298.12
2019-04-01T11:26:00.814Z,298.12
2019-04-01T11:27:00.776Z,292.50
2019-04-01T11:28:00.725Z,292.50
2019-04-01T11:29:00.711Z,292.50
2019-04-01T11:30:00.700Z,292.50
2019-04-01T11:31:00.783Z,292.50
2019-04-01T11:32:00.699Z,292.50
2019-04-01T11:33:00.695Z,292.50
2019-04-01T11:34:00.668Z,292.50
2019-04-01T11:35:00.659Z,292.50
2019-04-01T11:36:00.641Z,286.88
2019-04-01T11:37:00.623Z,286.88
2019-04-01T11:38:00.707Z,286.88
2019-04-01T11:39:00.648Z,286.88
2019-04-01T11:40:00.625Z,286.88
2019-04-01T11:41:00.639Z,286.88
2019-04-01T11:42:01.565Z,286.88
2019-04-01T11:43:00.956Z,286.88
2019-04-01T11:44:00.590Z,286.88
2019-04-01T11:45:00.584Z,286.88
2019-04-01T11:46:00.554Z,286.88
2019-04-01T11:47:00.610Z,286.88
2019-04-01T11:48:00.557Z,286.88
2019-04-01T11:49:00.511Z,286.88
2019-04-01T11:50:00.564Z,286.88
2019-04-01T11:51:00.480Z,281.25
2019-04-01T11:52:00.503Z,286.88
2019-04-01T11:53:00.479Z,286.88
2019-04-01T11:54:00.442Z,281.25
2019-04-01T11:55:00.504Z,281.25
2019-04-01T11:56:00.415Z,281.25
2019-04-01T11:57:00.407Z,286.88
2019-04-01T11:58:00.563Z,281.25
2019-04-01T11:59:00.405Z,286.88
2019-04-01T12:00:00.508Z,281.25
2019-04-01T12:01:00.421Z,281.25
2019-04-01T12:02:00.380Z,281.25
2019-04-01T12:03:00.420Z,281.25
2019-04-01T12:04:00.329Z,281.25
2019-04-01T12:05:00.547Z,281.25
2019-04-01T12:06:00.312Z,281.25
2019-04-01T12:07:02.022Z,281.25
2019-04-01T12:08:00.294Z,281.25
2019-04-01T12:09:00.297Z,281.25
2019-04-01T12:10:00.294Z,281.25
2019-04-01T12:11:00.270Z,281.25
2019-04-01T12:12:00.366Z,281.25
2019-04-01T12:13:00.438Z,286.88
2019-04-01T12:14:00.233Z,286.88
2019-04-01T12:15:00.391Z,286.88
2019-04-01T12:16:00.219Z,286.88
2019-04-01T12:17:00.189Z,286.88
2019-04-01T12:18:00.196Z,286.88
2019-04-01T12:19:00.163Z,292.50
2019-04-01T12:20:00.397Z,292.50
2019-04-01T12:21:00.171Z,292.50
2019-04-01T12:22:00.165Z,292.50
2019-04-01T12:23:00.159Z,292.50
2019-04-01T12:24:00.120Z,292.50
2019-04-01T12:25:00.256Z,298.12
2019-04-01T12:26:13.908Z,337.50
2019-04-01T12:27:01.111Z,945.00
2019-04-01T12:28:00.097Z,2992.50
2019-04-01T12:29:00.084Z,4055.62
2019-04-01T12:30:00.093Z,4005.00
2019-04-01T12:31:00.084Z,3943.12
2019-04-01T12:32:00.033Z,3690.00
2019-04-01T12:33:00.066Z,3256.88
2019-04-01T12:34:00.044Z,3369.38
2019-04-01T12:35:00.000Z,3785.62
2019-04-01T12:35:59.993Z,3802.50
2019-04-01T12:36:59.986Z,3830.62
2019-04-01T12:37:59.984Z,3903.75
2019-04-01T12:38:59.976Z,3830.62
2019-04-01T12:39:59.946Z,3813.75
2019-04-01T12:40:59.942Z,3993.75
2019-04-01T12:41:59.955Z,4044.38
2019-04-01T12:42:59.919Z,3920.62
2019-04-01T12:43:59.924Z,3875.62
2019-04-01T12:44:59.901Z,4055.62
2019-04-01T12:45:59.888Z,3960.00
2019-04-01T12:46:59.880Z,3898.12